sensor_id;sensor_type;location;lat;lon;timestamp;temperature;humidity
38936;DHT22;25541;47.458;9.644;2022-12-18T05:01:24;-1.90;93.30
38936;DHT22;25541;47.458;9.644;2022-12-18T05:03:51;-1.90;93.10
38936;DHT22;25541;47.458;9.644;2022-12-18T05:06:17;-1.90;93.40
38936;DHT22;25541;47.458;9.644;2022-12-18T05:08:42;-1.80;93.20
38936;DHT22;25541;47.458;9.644;2022-12-18T05:11:12;-1.80;93.40
38936;DHT22;25541;47.458;9.644;2022-12-18T05:13:39;-1.80;93.20
38936;DHT22;25541;47.458;9.644;2022-12-18T05:16:05;-1.80;93.20
38936;DHT22;25541;47.458;9.644;2022-12-18T05:18:31;-1.90;93.40
38936;DHT22;25541;47.458;9.644;2022-12-18T05:20:57;-1.90;93.50
38936;DHT22;25541;47.458;9.644;2022-12-18T05:23:24;-2.00;93.70
38936;DHT22;25541;47.458;9.644;2022-12-18T05:25:53;-2.10;93.90
38936;DHT22;25541;47.458;9.644;2022-12-18T05:28:20;-2.10;94.30
38936;DHT22;25541;47.458;9.644;2022-12-18T05:30:50;-2.10;94.50
38936;DHT22;25541;47.458;9.644;2022-12-18T05:33:17;-2.00;94.50
38936;DHT22;25541;47.458;9.644;2022-12-18T05:35:43;-2.00;94.60
38936;DHT22;25541;47.458;9.644;2022-12-18T05:38:09;-2.00;94.40
38936;DHT22;25541;47.458;9.644;2022-12-18T05:40:34;-1.90;94.50
38936;DHT22;25541;47.458;9.644;2022-12-18T05:43:00;-1.90;94.40
38936;DHT22;25541;47.458;9.644;2022-12-18T05:45:25;-1.90;94.50
38936;DHT22;25541;47.458;9.644;2022-12-18T05:47:51;-2.00;94.30
38936;DHT22;25541;47.458;9.644;2022-12-18T05:50:17;-1.90;94.40
38936;DHT22;25541;47.458;9.644;2022-12-18T05:52:42;-1.80;94.30
38936;DHT22;25541;47.458;9.644;2022-12-18T05:55:08;-1.90;94.20
38936;DHT22;25541;47.458;9.644;2022-12-18T05:57:34;-1.80;94.40
38936;DHT22;25541;47.458;9.644;2022-12-18T05:59:59;-1.80;94.30
38936;DHT22;25541;47.458;9.644;2022-12-18T06:02:25;-1.70;94.20
38936;DHT22;25541;47.458;9.644;2022-12-18T06:04:51;-1.70;94.10
38936;DHT22;25541;47.458;9.644;2022-12-18T06:07:16;-1.60;93.70
38936;DHT22;25541;47.458;9.644;2022-12-18T06:09:42;-1.60;93.90
38936;DHT22;25541;47.458;9.644;2022-12-18T06:12:09;-1.60;93.80
38936;DHT22;25541;47.458;9.644;2022-12-18T06:14:34;-1.50;93.70
38936;DHT22;25541;47.458;9.644;2022-12-18T06:17:00;-1.60;93.30
38936;DHT22;25541;47.458;9.644;2022-12-18T06:19:25;-1.60;93.80
38936;DHT22;25541;47.458;9.644;2022-12-18T06:21:51;-1.60;93.50
38936;DHT22;25541;47.458;9.644;2022-12-18T06:24:17;-1.70;93.30
38936;DHT22;25541;47.458;9.644;2022-12-18T06:26:42;-1.70;93.50
38936;DHT22;25541;47.458;9.644;2022-12-18T06:29:08;-1.70;93.40
38936;DHT22;25541;47.458;9.644;2022-12-18T06:31:34;-1.60;93.40
38936;DHT22;25541;47.458;9.644;2022-12-18T06:34:02;-1.60;93.30
38936;DHT22;25541;47.458;9.644;2022-12-18T06:36:29;-1.60;93.00
38936;DHT22;25541;47.458;9.644;2022-12-18T06:38:56;-1.70;92.90
38936;DHT22;25541;47.458;9.644;2022-12-18T06:41:22;-1.80;93.10
38936;DHT22;25541;47.458;9.644;2022-12-18T06:43:48;-1.90;93.50
38936;DHT22;25541;47.458;9.644;2022-12-18T06:46:14;-2.00;93.60
38936;DHT22;25541;47.458;9.644;2022-12-18T06:48:40;-2.00;93.80
38936;DHT22;25541;47.458;9.644;2022-12-18T06:51:05;-2.00;93.90
38936;DHT22;25541;47.458;9.644;2022-12-18T06:53:32;-2.10;94.00
38936;DHT22;25541;47.458;9.644;2022-12-18T06:56:02;-2.00;94.00
38936;DHT22;25541;47.458;9.644;2022-12-18T06:58:28;-2.00;94.10
38936;DHT22;25541;47.458;9.644;2022-12-18T07:00:59;-1.90;94.20
38936;DHT22;25541;47.458;9.644;2022-12-18T07:03:25;-1.80;93.70
38936;DHT22;25541;47.458;9.644;2022-12-18T07:05:51;-1.80;93.60
38936;DHT22;25541;47.458;9.644;2022-12-18T07:08:16;-1.70;94.00
38936;DHT22;25541;47.458;9.644;2022-12-18T07:10:43;-1.70;93.70
38936;DHT22;25541;47.458;9.644;2022-12-18T07:13:09;-1.60;93.70
38936;DHT22;25541;47.458;9.644;2022-12-18T07:15:34;-1.60;93.70
38936;DHT22;25541;47.458;9.644;2022-12-18T07:18:00;-1.60;93.60
38936;DHT22;25541;47.458;9.644;2022-12-18T07:20:26;-1.50;93.30
38936;DHT22;25541;47.458;9.644;2022-12-18T07:22:51;-1.50;93.20
38936;DHT22;25541;47.458;9.644;2022-12-18T07:25:17;-1.40;93.40
38936;DHT22;25541;47.458;9.644;2022-12-18T07:27:43;-1.40;93.20
38936;DHT22;25541;47.458;9.644;2022-12-18T07:30:09;-1.40;93.20
38936;DHT22;25541;47.458;9.644;2022-12-18T07:32:35;-1.40;93.10
38936;DHT22;25541;47.458;9.644;2022-12-18T07:35:00;-1.50;93.00
38936;DHT22;25541;47.458;9.644;2022-12-18T07:37:26;-1.50;93.20
38936;DHT22;25541;47.458;9.644;2022-12-18T07:39:52;-1.50;93.40
38936;DHT22;25541;47.458;9.644;2022-12-18T07:42:17;-1.40;93.20
38936;DHT22;25541;47.458;9.644;2022-12-18T07:44:59;-1.30;92.70
38936;DHT22;25541;47.458;9.644;2022-12-18T07:47:25;-1.20;92.80
38936;DHT22;25541;47.458;9.644;2022-12-18T07:49:51;-1.10;92.50
38936;DHT22;25541;47.458;9.644;2022-12-18T07:52:17;-1.10;92.20
38936;DHT22;25541;47.458;9.644;2022-12-18T07:54:42;-1.10;92.70
38936;DHT22;25541;47.458;9.644;2022-12-18T07:57:08;-1.10;92.70
38936;DHT22;25541;47.458;9.644;2022-12-18T07:59:34;-1.00;92.70
38936;DHT22;25541;47.458;9.644;2022-12-18T08:02:00;-0.90;92.10
38936;DHT22;25541;47.458;9.644;2022-12-18T08:04:26;-0.90;92.20
38936;DHT22;25541;47.458;9.644;2022-12-18T08:06:52;-0.90;91.90
38936;DHT22;25541;47.458;9.644;2022-12-18T08:09:18;-0.90;92.20
38936;DHT22;25541;47.458;9.644;2022-12-18T08:11:44;-0.80;92.00
38936;DHT22;25541;47.458;9.644;2022-12-18T08:14:09;-0.80;91.80
38936;DHT22;25541;47.458;9.644;2022-12-18T08:16:35;-0.80;92.40
38936;DHT22;25541;47.458;9.644;2022-12-18T08:19:02;-0.70;92.50
38936;DHT22;25541;47.458;9.644;2022-12-18T08:21:29;-0.50;91.70
38936;DHT22;25541;47.458;9.644;2022-12-18T08:23:57;-0.50;91.40
38936;DHT22;25541;47.458;9.644;2022-12-18T08:26:24;-0.60;91.40
38936;DHT22;25541;47.458;9.644;2022-12-18T08:28:50;-0.70;91.60
38936;DHT22;25541;47.458;9.644;2022-12-18T08:31:17;-0.70;91.60
38936;DHT22;25541;47.458;9.644;2022-12-18T08:33:43;-0.70;91.60
38936;DHT22;25541;47.458;9.644;2022-12-18T08:36:09;-0.70;92.00
38936;DHT22;25541;47.458;9.644;2022-12-18T08:38:35;-0.60;91.40
38936;DHT22;25541;47.458;9.644;2022-12-18T08:41:06;-0.60;91.70
38936;DHT22;25541;47.458;9.644;2022-12-18T08:43:32;-0.60;91.50
38936;DHT22;25541;47.458;9.644;2022-12-18T08:46:17;-0.50;91.70
38936;DHT22;25541;47.458;9.644;2022-12-18T08:48:44;-0.40;91.00
38936;DHT22;25541;47.458;9.644;2022-12-18T08:51:09;-0.30;91.00
38936;DHT22;25541;47.458;9.644;2022-12-18T08:53:36;-0.30;90.90
38936;DHT22;25541;47.458;9.644;2022-12-18T08:56:02;-0.10;90.80
38936;DHT22;25541;47.458;9.644;2022-12-18T08:58:28;0.10;90.70
38936;DHT22;25541;47.458;9.644;2022-12-18T09:00:54;0.30;90.40
38936;DHT22;25541;47.458;9.644;2022-12-18T09:03:24;0.70;89.10
38936;DHT22;25541;47.458;9.644;2022-12-18T09:05:50;1.30;88.70
38936;DHT22;25541;47.458;9.644;2022-12-18T09:08:15;1.90;84.90
38936;DHT22;25541;47.458;9.644;2022-12-18T09:10:45;2.40;81.70
38936;DHT22;25541;47.458;9.644;2022-12-18T09:13:12;2.70;80.30
38936;DHT22;25541;47.458;9.644;2022-12-18T09:15:46;2.90;80.00
38936;DHT22;25541;47.458;9.644;2022-12-18T09:18:13;3.20;78.10
38936;DHT22;25541;47.458;9.644;2022-12-18T09:20:39;3.60;76.20
38936;DHT22;25541;47.458;9.644;2022-12-18T09:23:05;3.80;76.50
38936;DHT22;25541;47.458;9.644;2022-12-18T09:25:32;3.80;74.70
38936;DHT22;25541;47.458;9.644;2022-12-18T09:28:15;3.60;74.60
38936;DHT22;25541;47.458;9.644;2022-12-18T09:30:47;3.30;75.50
38936;DHT22;25541;47.458;9.644;2022-12-18T09:33:14;3.20;75.20
38936;DHT22;25541;47.458;9.644;2022-12-18T09:35:42;2.90;77.10
38936;DHT22;25541;47.458;9.644;2022-12-18T09:38:12;2.70;76.80
38936;DHT22;25541;47.458;9.644;2022-12-18T09:40:43;2.50;78.40
38936;DHT22;25541;47.458;9.644;2022-12-18T09:43:19;2.40;77.10
38936;DHT22;25541;47.458;9.644;2022-12-18T09:45:49;2.10;79.10
38936;DHT22;25541;47.458;9.644;2022-12-18T09:48:23;2.00;80.30
38936;DHT22;25541;47.458;9.644;2022-12-18T09:50:53;2.00;80.60
38936;DHT22;25541;47.458;9.644;2022-12-18T09:53:26;2.00;81.40
38936;DHT22;25541;47.458;9.644;2022-12-18T09:55:53;2.20;89.40
38936;DHT22;25541;47.458;9.644;2022-12-18T09:58:36;2.40;81.50
38936;DHT22;25541;47.458;9.644;2022-12-18T10:01:17;2.40;79.40
38936;DHT22;25541;47.458;9.644;2022-12-18T10:03:43;2.30;79.00
38936;DHT22;25541;47.458;9.644;2022-12-18T10:08:55;1.90;80.60
38936;DHT22;25541;47.458;9.644;2022-12-18T10:14:34;1.70;81.00
38936;DHT22;25541;47.458;9.644;2022-12-18T10:20:21;1.60;81.70
38936;DHT22;25541;47.458;9.644;2022-12-18T10:23:04;1.70;80.90
38936;DHT22;25541;47.458;9.644;2022-12-18T10:28:12;1.80;81.50
38936;DHT22;25541;47.458;9.644;2022-12-18T10:30:39;1.90;81.00
38936;DHT22;25541;47.458;9.644;2022-12-18T10:33:05;2.00;81.00
38936;DHT22;25541;47.458;9.644;2022-12-18T10:35:31;2.00;80.40
38936;DHT22;25541;47.458;9.644;2022-12-18T10:38:21;1.90;80.30
38936;DHT22;25541;47.458;9.644;2022-12-18T10:43:42;1.90;80.80
38936;DHT22;25541;47.458;9.644;2022-12-18T10:51:08;2.20;80.50
38936;DHT22;25541;47.458;9.644;2022-12-18T10:53:36;2.20;79.50
38936;DHT22;25541;47.458;9.644;2022-12-18T10:56:04;2.20;79.80
38936;DHT22;25541;47.458;9.644;2022-12-18T10:58:32;2.30;79.70
38936;DHT22;25541;47.458;9.644;2022-12-18T11:01:17;2.40;79.30
38936;DHT22;25541;47.458;9.644;2022-12-18T11:06:22;2.70;78.20
38936;DHT22;25541;47.458;9.644;2022-12-18T11:09:06;2.80;78.00
38936;DHT22;25541;47.458;9.644;2022-12-18T11:11:52;3.00;78.00
38936;DHT22;25541;47.458;9.644;2022-12-18T11:14:33;3.00;76.80
38936;DHT22;25541;47.458;9.644;2022-12-18T11:17:00;3.20;76.30
38936;DHT22;25541;47.458;9.644;2022-12-18T11:19:40;3.10;76.50
38936;DHT22;25541;47.458;9.644;2022-12-18T11:22:31;3.00;76.60
38936;DHT22;25541;47.458;9.644;2022-12-18T11:27:25;2.90;77.50
38936;DHT22;25541;47.458;9.644;2022-12-18T11:29:52;3.00;77.60
38936;DHT22;25541;47.458;9.644;2022-12-18T11:32:36;3.00;77.80
38936;DHT22;25541;47.458;9.644;2022-12-18T11:35:37;3.00;76.70
38936;DHT22;25541;47.458;9.644;2022-12-18T11:38:26;3.10;77.30
38936;DHT22;25541;47.458;9.644;2022-12-18T11:41:03;3.10;77.20
38936;DHT22;25541;47.458;9.644;2022-12-18T11:43:52;3.30;77.30
38936;DHT22;25541;47.458;9.644;2022-12-18T11:46:37;3.30;77.30
38936;DHT22;25541;47.458;9.644;2022-12-18T11:49:28;3.30;76.80
38936;DHT22;25541;47.458;9.644;2022-12-18T11:52:20;3.40;76.00
38936;DHT22;25541;47.458;9.644;2022-12-18T11:54:47;3.30;76.00
38936;DHT22;25541;47.458;9.644;2022-12-18T11:57:34;3.40;76.40
38936;DHT22;25541;47.458;9.644;2022-12-18T12:08:06;3.60;76.10
38936;DHT22;25541;47.458;9.644;2022-12-18T12:11:04;3.60;76.90
38936;DHT22;25541;47.458;9.644;2022-12-18T12:16:18;3.30;76.70
38936;DHT22;25541;47.458;9.644;2022-12-18T12:27:15;3.00;76.00
38936;DHT22;25541;47.458;9.644;2022-12-18T12:40:32;2.50;78.90
38936;DHT22;25541;47.458;9.644;2022-12-18T12:43:42;2.60;78.30
38936;DHT22;25541;47.458;9.644;2022-12-18T12:46:07;2.60;78.40
38936;DHT22;25541;47.458;9.644;2022-12-18T12:48:53;2.70;78.00
38936;DHT22;25541;47.458;9.644;2022-12-18T12:51:23;2.70;77.60
38936;DHT22;25541;47.458;9.644;2022-12-18T12:53:52;2.60;78.00
38936;DHT22;25541;47.458;9.644;2022-12-18T12:56:20;2.60;77.30
38936;DHT22;25541;47.458;9.644;2022-12-18T12:59:02;2.40;77.90
38936;DHT22;25541;47.458;9.644;2022-12-18T13:01:54;2.40;78.20
38936;DHT22;25541;47.458;9.644;2022-12-18T13:04:27;2.40;78.30
38936;DHT22;25541;47.458;9.644;2022-12-18T13:07:32;2.40;78.80
38936;DHT22;25541;47.458;9.644;2022-12-18T13:15:29;2.50;78.40
38936;DHT22;25541;47.458;9.644;2022-12-18T13:25:50;2.40;78.40
38936;DHT22;25541;47.458;9.644;2022-12-18T13:30:57;2.30;79.60
38936;DHT22;25541;47.458;9.644;2022-12-18T13:36:01;2.30;80.80
38936;DHT22;25541;47.458;9.644;2022-12-18T13:38:35;2.30;79.20
38936;DHT22;25541;47.458;9.644;2022-12-18T13:43:52;2.30;79.70
38936;DHT22;25541;47.458;9.644;2022-12-18T13:51:17;2.40;79.90
38936;DHT22;25541;47.458;9.644;2022-12-18T13:53:50;2.40;79.90
38936;DHT22;25541;47.458;9.644;2022-12-18T13:56:25;2.40;80.00
38936;DHT22;25541;47.458;9.644;2022-12-18T14:01:35;2.30;79.50
38936;DHT22;25541;47.458;9.644;2022-12-18T14:04:31;2.30;79.10
38936;DHT22;25541;47.458;9.644;2022-12-18T14:07:09;2.20;79.90
38936;DHT22;25541;47.458;9.644;2022-12-18T14:09:48;2.20;80.70
38936;DHT22;25541;47.458;9.644;2022-12-18T14:12:21;2.20;80.40
38936;DHT22;25541;47.458;9.644;2022-12-18T14:15:34;2.30;80.10
38936;DHT22;25541;47.458;9.644;2022-12-18T14:20:43;2.30;80.30
38936;DHT22;25541;47.458;9.644;2022-12-18T14:26:02;2.10;81.10
38936;DHT22;25541;47.458;9.644;2022-12-18T14:28:29;2.00;80.40
38936;DHT22;25541;47.458;9.644;2022-12-18T14:30:55;2.00;80.80
38936;DHT22;25541;47.458;9.644;2022-12-18T14:33:27;2.00;81.10
38936;DHT22;25541;47.458;9.644;2022-12-18T14:36:04;1.90;80.30
38936;DHT22;25541;47.458;9.644;2022-12-18T14:38:40;1.70;80.70
38936;DHT22;25541;47.458;9.644;2022-12-18T14:41:13;1.60;81.10
38936;DHT22;25541;47.458;9.644;2022-12-18T14:43:42;1.60;80.90
38936;DHT22;25541;47.458;9.644;2022-12-18T14:46:36;1.40;81.80
38936;DHT22;25541;47.458;9.644;2022-12-18T14:49:15;1.40;82.30
38936;DHT22;25541;47.458;9.644;2022-12-18T14:51:57;1.30;82.00
38936;DHT22;25541;47.458;9.644;2022-12-18T14:54:24;1.20;82.30
38936;DHT22;25541;47.458;9.644;2022-12-18T14:56:56;1.30;82.60
38936;DHT22;25541;47.458;9.644;2022-12-18T14:59:26;1.20;82.70
38936;DHT22;25541;47.458;9.644;2022-12-18T15:02:19;1.10;83.20
38936;DHT22;25541;47.458;9.644;2022-12-18T15:04:47;1.10;83.00
38936;DHT22;25541;47.458;9.644;2022-12-18T15:07:20;1.00;83.90
38936;DHT22;25541;47.458;9.644;2022-12-18T15:12:41;1.00;84.30
38936;DHT22;25541;47.458;9.644;2022-12-18T15:18:04;0.60;85.10
38936;DHT22;25541;47.458;9.644;2022-12-18T15:25:40;0.30;86.70
38936;DHT22;25541;47.458;9.644;2022-12-18T15:28:29;0.30;87.20
38936;DHT22;25541;47.458;9.644;2022-12-18T15:33:42;0.20;87.50
38936;DHT22;25541;47.458;9.644;2022-12-18T15:36:14;0.20;87.80
38936;DHT22;25541;47.458;9.644;2022-12-18T15:38:40;0.10;88.60
38936;DHT22;25541;47.458;9.644;2022-12-18T15:41:13;0.10;88.20
38936;DHT22;25541;47.458;9.644;2022-12-18T15:43:38;0.10;88.90
38936;DHT22;25541;47.458;9.644;2022-12-18T15:46:26;0.10;89.10
38936;DHT22;25541;47.458;9.644;2022-12-18T15:48:56;0.10;89.30
38936;DHT22;25541;47.458;9.644;2022-12-18T15:51:35;0.10;89.20
38936;DHT22;25541;47.458;9.644;2022-12-18T15:54:04;-0.10;89.90
38936;DHT22;25541;47.458;9.644;2022-12-18T15:56:30;-0.10;90.00
38936;DHT22;25541;47.458;9.644;2022-12-18T15:59:19;-0.20;90.10
38936;DHT22;25541;47.458;9.644;2022-12-18T16:01:47;-0.30;90.30
38936;DHT22;25541;47.458;9.644;2022-12-18T16:04:15;-0.30;90.50
38936;DHT22;25541;47.458;9.644;2022-12-18T16:06:41;-0.40;90.50
38936;DHT22;25541;47.458;9.644;2022-12-18T16:09:07;-0.50;90.70
38936;DHT22;25541;47.458;9.644;2022-12-18T16:11:35;-0.50;90.90
38936;DHT22;25541;47.458;9.644;2022-12-18T16:14:20;-0.70;91.20
38936;DHT22;25541;47.458;9.644;2022-12-18T16:16:47;-0.70;91.30
38936;DHT22;25541;47.458;9.644;2022-12-18T16:19:15;-0.60;91.40
38936;DHT22;25541;47.458;9.644;2022-12-18T16:21:41;-0.60;91.30
38936;DHT22;25541;47.458;9.644;2022-12-18T16:24:33;-0.60;91.40
38936;DHT22;25541;47.458;9.644;2022-12-18T16:27:01;-0.70;91.40
38936;DHT22;25541;47.458;9.644;2022-12-18T16:29:28;-0.70;91.40
38936;DHT22;25541;47.458;9.644;2022-12-18T16:31:58;-0.80;91.60
38936;DHT22;25541;47.458;9.644;2022-12-18T16:34:29;-0.90;91.80
38936;DHT22;25541;47.458;9.644;2022-12-18T16:36:57;-0.90;92.00
38936;DHT22;25541;47.458;9.644;2022-12-18T16:39:23;-1.10;92.30
38936;DHT22;25541;47.458;9.644;2022-12-18T16:41:49;-1.20;92.70
38936;DHT22;25541;47.458;9.644;2022-12-18T16:44:15;-1.20;93.00
38936;DHT22;25541;47.458;9.644;2022-12-18T16:46:41;-1.30;93.20
38936;DHT22;25541;47.458;9.644;2022-12-18T16:49:17;-1.30;93.30
38936;DHT22;25541;47.458;9.644;2022-12-18T16:51:45;-1.30;93.50
38936;DHT22;25541;47.458;9.644;2022-12-18T16:54:12;-1.30;93.80
38936;DHT22;25541;47.458;9.644;2022-12-18T16:56:38;-1.40;93.80
38936;DHT22;25541;47.458;9.644;2022-12-18T16:59:04;-1.40;94.00
38936;DHT22;25541;47.458;9.644;2022-12-18T17:01:32;-1.40;94.20
38936;DHT22;25541;47.458;9.644;2022-12-18T17:04:01;-1.40;94.20
38936;DHT22;25541;47.458;9.644;2022-12-18T17:06:28;-1.40;94.20
38936;DHT22;25541;47.458;9.644;2022-12-18T17:08:58;-1.40;94.40
38936;DHT22;25541;47.458;9.644;2022-12-18T17:11:26;-1.40;94.40
38936;DHT22;25541;47.458;9.644;2022-12-18T17:13:53;-1.40;94.40
38936;DHT22;25541;47.458;9.644;2022-12-18T17:16:20;-1.40;94.40
38936;DHT22;25541;47.458;9.644;2022-12-18T17:18:46;-1.40;94.50
38936;DHT22;25541;47.458;9.644;2022-12-18T17:21:12;-1.40;94.40
38936;DHT22;25541;47.458;9.644;2022-12-18T17:23:40;-1.30;94.40
38936;DHT22;25541;47.458;9.644;2022-12-18T17:26:06;-1.20;94.40
38936;DHT22;25541;47.458;9.644;2022-12-18T17:28:35;-1.10;94.00
38936;DHT22;25541;47.458;9.644;2022-12-18T17:31:12;-1.00;93.80
38936;DHT22;25541;47.458;9.644;2022-12-18T17:33:38;-0.90;94.00
38936;DHT22;25541;47.458;9.644;2022-12-18T17:36:05;-0.90;93.50
38936;DHT22;25541;47.458;9.644;2022-12-18T17:38:32;-0.80;93.30
38936;DHT22;25541;47.458;9.644;2022-12-18T17:41:05;-0.70;93.40
38936;DHT22;25541;47.458;9.644;2022-12-18T17:43:31;-0.70;92.90
38936;DHT22;25541;47.458;9.644;2022-12-18T17:46:03;-0.70;92.80
38936;DHT22;25541;47.458;9.644;2022-12-18T17:48:32;-0.70;92.90
38936;DHT22;25541;47.458;9.644;2022-12-18T17:51:02;-0.60;93.10
38936;DHT22;25541;47.458;9.644;2022-12-18T17:53:30;-0.50;92.60
38936;DHT22;25541;47.458;9.644;2022-12-18T17:55:57;-0.50;92.40
38936;DHT22;25541;47.458;9.644;2022-12-18T17:58:26;-0.50;92.40
38936;DHT22;25541;47.458;9.644;2022-12-18T18:00:52;-0.50;92.40
38936;DHT22;25541;47.458;9.644;2022-12-18T18:03:18;-0.50;92.40
38936;DHT22;25541;47.458;9.644;2022-12-18T18:05:44;-0.50;92.50
38936;DHT22;25541;47.458;9.644;2022-12-18T18:08:10;-0.40;92.60
38936;DHT22;25541;47.458;9.644;2022-12-18T18:10:37;-0.30;92.40
38936;DHT22;25541;47.458;9.644;2022-12-18T18:13:04;-0.30;92.00
38936;DHT22;25541;47.458;9.644;2022-12-18T18:15:56;-0.30;92.20
38936;DHT22;25541;47.458;9.644;2022-12-18T18:18:22;-0.20;91.90
38936;DHT22;25541;47.458;9.644;2022-12-18T18:20:47;-0.20;92.00
38936;DHT22;25541;47.458;9.644;2022-12-18T18:23:13;-0.20;91.80
38936;DHT22;25541;47.458;9.644;2022-12-18T18:25:39;-0.20;91.90
38936;DHT22;25541;47.458;9.644;2022-12-18T18:28:04;-0.20;91.80
38936;DHT22;25541;47.458;9.644;2022-12-18T18:30:30;-0.20;91.80
38936;DHT22;25541;47.458;9.644;2022-12-18T18:32:56;-0.20;91.70
38936;DHT22;25541;47.458;9.644;2022-12-18T18:35:21;-0.20;91.90
38936;DHT22;25541;47.458;9.644;2022-12-18T18:37:47;-0.20;91.80
38936;DHT22;25541;47.458;9.644;2022-12-18T18:40:14;-0.30;91.90
38936;DHT22;25541;47.458;9.644;2022-12-18T18:42:39;-0.40;92.20
38936;DHT22;25541;47.458;9.644;2022-12-18T18:45:05;-0.40;92.20
38936;DHT22;25541;47.458;9.644;2022-12-18T18:47:31;-0.40;92.50
38936;DHT22;25541;47.458;9.644;2022-12-18T18:49:57;-0.40;92.70
38936;DHT22;25541;47.458;9.644;2022-12-18T18:52:22;-0.40;92.50
38936;DHT22;25541;47.458;9.644;2022-12-18T18:54:48;-0.30;92.40
38936;DHT22;25541;47.458;9.644;2022-12-18T18:57:14;-0.30;92.30
38936;DHT22;25541;47.458;9.644;2022-12-18T18:59:40;-0.30;92.20
38936;DHT22;25541;47.458;9.644;2022-12-18T19:02:12;-0.30;92.30
38936;DHT22;25541;47.458;9.644;2022-12-18T19:04:38;-0.30;92.70
38936;DHT22;25541;47.458;9.644;2022-12-18T19:07:05;-0.40;92.50
38936;DHT22;25541;47.458;9.644;2022-12-18T19:09:30;-0.50;93.10
38936;DHT22;25541;47.458;9.644;2022-12-18T19:11:56;-0.50;92.90
38936;DHT22;25541;47.458;9.644;2022-12-18T19:14:41;-0.40;92.90
38936;DHT22;25541;47.458;9.644;2022-12-18T19:17:07;-0.30;92.90
38936;DHT22;25541;47.458;9.644;2022-12-18T19:19:33;-0.20;92.70
38936;DHT22;25541;47.458;9.644;2022-12-18T19:21:59;-0.30;92.50
38936;DHT22;25541;47.458;9.644;2022-12-18T19:24:25;-0.20;92.50
38936;DHT22;25541;47.458;9.644;2022-12-18T19:26:51;-0.20;92.40
38936;DHT22;25541;47.458;9.644;2022-12-18T19:29:17;-0.30;92.50
38936;DHT22;25541;47.458;9.644;2022-12-18T19:31:42;-0.30;92.60
38936;DHT22;25541;47.458;9.644;2022-12-18T19:34:09;-0.30;92.80
38936;DHT22;25541;47.458;9.644;2022-12-18T19:36:38;-0.30;92.60
38936;DHT22;25541;47.458;9.644;2022-12-18T19:39:22;-0.20;92.60
38936;DHT22;25541;47.458;9.644;2022-12-18T19:41:48;-0.20;92.40
38936;DHT22;25541;47.458;9.644;2022-12-18T19:44:15;-0.20;92.40
38936;DHT22;25541;47.458;9.644;2022-12-18T19:46:41;-0.20;92.20
38936;DHT22;25541;47.458;9.644;2022-12-18T19:49:10;-0.10;92.40
38936;DHT22;25541;47.458;9.644;2022-12-18T19:51:37;0.00;92.30
38936;DHT22;25541;47.458;9.644;2022-12-18T19:54:03;0.10;92.10
38936;DHT22;25541;47.458;9.644;2022-12-18T19:56:32;0.00;92.00
38936;DHT22;25541;47.458;9.644;2022-12-18T19:58:57;0.00;92.10
38936;DHT22;25541;47.458;9.644;2022-12-18T20:01:24;0.00;92.10
38936;DHT22;25541;47.458;9.644;2022-12-18T20:03:51;0.00;91.80
38936;DHT22;25541;47.458;9.644;2022-12-18T20:06:30;0.00;91.90
38936;DHT22;25541;47.458;9.644;2022-12-18T20:08:58;0.00;92.00
38936;DHT22;25541;47.458;9.644;2022-12-18T20:11:24;-0.10;92.10
38936;DHT22;25541;47.458;9.644;2022-12-18T20:13:50;-0.10;92.10
38936;DHT22;25541;47.458;9.644;2022-12-18T20:16:16;-0.20;92.40
38936;DHT22;25541;47.458;9.644;2022-12-18T20:18:41;-0.10;92.40
38936;DHT22;25541;47.458;9.644;2022-12-18T20:21:07;0.00;92.40
38936;DHT22;25541;47.458;9.644;2022-12-18T20:23:33;0.00;92.20
38936;DHT22;25541;47.458;9.644;2022-12-18T20:25:58;0.10;92.30
38936;DHT22;25541;47.458;9.644;2022-12-18T20:28:24;0.10;92.00
38936;DHT22;25541;47.458;9.644;2022-12-18T20:30:53;0.10;91.80
38936;DHT22;25541;47.458;9.644;2022-12-18T20:33:22;0.10;91.90
38936;DHT22;25541;47.458;9.644;2022-12-18T20:35:48;0.10;92.00
38936;DHT22;25541;47.458;9.644;2022-12-18T20:38:13;0.00;92.00
38936;DHT22;25541;47.458;9.644;2022-12-18T20:40:40;0.00;92.10
38936;DHT22;25541;47.458;9.644;2022-12-18T20:43:06;-0.10;92.20
38936;DHT22;25541;47.458;9.644;2022-12-18T20:45:32;-0.10;92.30
38936;DHT22;25541;47.458;9.644;2022-12-18T20:47:58;-0.10;92.40
38936;DHT22;25541;47.458;9.644;2022-12-18T20:50:25;-0.10;92.20
38936;DHT22;25541;47.458;9.644;2022-12-18T20:52:51;0.00;92.10
38936;DHT22;25541;47.458;9.644;2022-12-18T20:55:16;-0.10;92.40
38936;DHT22;25541;47.458;9.644;2022-12-18T20:57:42;-0.20;92.20
38936;DHT22;25541;47.458;9.644;2022-12-18T21:00:08;-0.30;92.40
38936;DHT22;25541;47.458;9.644;2022-12-18T21:02:35;-0.30;92.70
38936;DHT22;25541;47.458;9.644;2022-12-18T21:05:01;-0.30;92.90
38936;DHT22;25541;47.458;9.644;2022-12-18T21:07:26;-0.40;92.80
38936;DHT22;25541;47.458;9.644;2022-12-18T21:09:53;-0.40;93.00
38936;DHT22;25541;47.458;9.644;2022-12-18T21:12:18;-0.40;92.90
38936;DHT22;25541;47.458;9.644;2022-12-18T21:14:59;-0.40;93.00
38936;DHT22;25541;47.458;9.644;2022-12-18T21:17:26;-0.50;93.10
38936;DHT22;25541;47.458;9.644;2022-12-18T21:19:52;-0.50;93.30
38936;DHT22;25541;47.458;9.644;2022-12-18T21:22:18;-0.50;93.10
38936;DHT22;25541;47.458;9.644;2022-12-18T21:24:43;-0.40;93.20
38936;DHT22;25541;47.458;9.644;2022-12-18T21:27:09;-0.30;93.00
38936;DHT22;25541;47.458;9.644;2022-12-18T21:29:35;-0.30;93.20
38936;DHT22;25541;47.458;9.644;2022-12-18T21:32:02;-0.30;92.90
38936;DHT22;25541;47.458;9.644;2022-12-18T21:34:29;-0.20;92.80
38936;DHT22;25541;47.458;9.644;2022-12-18T21:36:56;-0.10;92.90
38936;DHT22;25541;47.458;9.644;2022-12-18T21:39:23;-0.10;92.50
38936;DHT22;25541;47.458;9.644;2022-12-18T21:41:49;-0.10;92.50
38936;DHT22;25541;47.458;9.644;2022-12-18T21:44:34;0.00;92.50
38936;DHT22;25541;47.458;9.644;2022-12-18T21:47:00;0.00;92.30
38936;DHT22;25541;47.458;9.644;2022-12-18T21:49:26;0.10;92.30
38936;DHT22;25541;47.458;9.644;2022-12-18T21:51:54;0.10;92.10
38936;DHT22;25541;47.458;9.644;2022-12-18T21:54:20;0.00;92.30
38936;DHT22;25541;47.458;9.644;2022-12-18T21:56:58;0.10;92.40
38936;DHT22;25541;47.458;9.644;2022-12-18T22:01:57;0.20;92.00
38936;DHT22;25541;47.458;9.644;2022-12-18T22:04:23;0.10;91.90
38936;DHT22;25541;47.458;9.644;2022-12-18T22:06:50;0.10;91.90
38936;DHT22;25541;47.458;9.644;2022-12-18T22:09:21;0.00;92.10
38936;DHT22;25541;47.458;9.644;2022-12-18T22:11:47;-0.10;92.40
38936;DHT22;25541;47.458;9.644;2022-12-18T22:14:14;-0.10;92.70
38936;DHT22;25541;47.458;9.644;2022-12-18T22:16:41;-0.10;92.70
38936;DHT22;25541;47.458;9.644;2022-12-18T22:19:08;0.00;92.60
38936;DHT22;25541;47.458;9.644;2022-12-18T22:21:36;0.00;92.40
38936;DHT22;25541;47.458;9.644;2022-12-18T22:24:07;0.00;92.30
38936;DHT22;25541;47.458;9.644;2022-12-18T22:26:35;0.00;92.50
38936;DHT22;25541;47.458;9.644;2022-12-18T22:29:01;0.00;92.40
38936;DHT22;25541;47.458;9.644;2022-12-18T22:31:45;0.00;92.40
38936;DHT22;25541;47.458;9.644;2022-12-18T22:34:11;0.00;92.70
38936;DHT22;25541;47.458;9.644;2022-12-18T22:36:39;0.00;92.70
38936;DHT22;25541;47.458;9.644;2022-12-18T22:39:18;0.10;92.50